KSRQ/SRQ METAR and TAF weather

Enter ICAO airport designator
Station Type Date Time Source
KSRQ METAR 2022/06/30 00:35 UTC NOAA

KSRQ 300035Z 18003KT 2 1/2SM VCTS RA FEW027 SCT034 BKN046 26/23 A3010 RMK AO2 LTG DSNT N TSE14 P0040 T02610233


Station Type Date Time Source
KSRQ Decoded METAR 2022/06/30 00:35 UTC NOAA

SARASOTA/BRADENTON INTERNATIONAL ., FL, United States (KSRQ) 27-24N 082-33W 18M
Jun 29, 2022 - 08:35 PM EDT / 2022.06.30 0035 UTC
Wind: from the S (180 degrees) at 3 MPH (3 KT):0
Visibility: 2 1/2 mile(s):0
Sky conditions: mostly cloudy
Weather: thunder in the vicinity; rain; Lightning observed
Precipitation last hour: 0.40 inches
Temperature: 79.0 F (26.1 C)
Dew Point: 73.9 F (23.3 C)
Relative Humidity: 84%
Pressure (altimeter): 30.1 in. Hg (1019 hPa)
ob: KSRQ 300035Z 18003KT 2 1/2SM VCTS RA FEW027 SCT034 BKN046 26/23 A3010 RMK AO2 LTG DSNT N TSE14 P0040 T02610233
cycle: 0

Station Type Date Time Source
KSRQ TAF 2022/06/29 18:27 UTC NOAA

TAF KSRQ 291725Z 2918/3018 26009KT P6SM VCSH SCT040 BKN200
FM292000 28009KT P6SM VCTS SCT040CB BKN200
TEMPO 2922/3001 VRB15G25KT 5SM TSRA SCT030CB BKN200
FM300300 10004KT P6SM FEW030 SCT200
FM301600 25006KT P6SM SCT030 BKN200

Example: see airport list